Time;durP1;ratioP1;P1;durP2;ratioP2;P2;SDS_P1;SDS_P2;PMS_P1;PMS_P2;Temp;Humidity;BMP_temperature;BMP_pressure;BME280_temperature;BME280_humidity;BME280_pressure;Samples;Min_cycle;Max_cycle;Signal;HPM_P1;HPM_P2
2022/10/08 00:00:50;;;;;;;12.10;4.28;;;;;;;-141.23;100.00;62281.09;5095989;28;20454;-70
2022/10/08 00:03:17;;;;;;;17.58;4.18;;;;;;;-141.23;100.00;62281.09;5062941;28;20469;-70
2022/10/08 00:05:43;;;;;;;13.95;3.70;;;;;;;-141.23;100.00;62281.09;5079175;28;20042;-70
2022/10/08 00:08:09;;;;;;;12.90;3.75;;;;;;;-141.23;100.00;62281.09;5079478;28;20373;-70
2022/10/08 00:10:35;;;;;;;17.17;3.85;;;;;;;-141.23;100.00;62281.09;5079689;28;20053;-70
2022/10/08 00:13:02;;;;;;;17.25;3.90;;;;;;;-141.23;100.00;62281.09;5096194;28;20040;-71
2022/10/08 00:15:29;;;;;;;12.73;3.72;;;;;;;-141.23;100.00;62281.09;5079639;28;20122;-71
2022/10/08 00:17:54;;;;;;;12.15;3.60;;;;;;;-141.23;100.00;62281.09;5079339;28;20047;-72
2022/10/08 00:20:21;;;;;;;13.77;3.92;;;;;;;-141.23;100.00;62281.09;5096648;28;20356;-71
2022/10/08 00:22:47;;;;;;;12.20;3.80;;;;;;;-141.23;100.00;62281.09;5063221;28;20185;-71
2022/10/08 00:25:13;;;;;;;23.52;4.47;;;;;;;-141.23;100.00;62281.09;5095842;28;20088;-71
2022/10/08 00:27:39;;;;;;;9.85;3.63;;;;;;;-141.23;100.00;62281.09;5060731;28;20735;-72
2022/10/08 00:30:06;;;;;;;21.60;4.57;;;;;;;-141.23;100.00;62281.09;5095778;28;20161;-71
2022/10/08 00:32:32;;;;;;;13.25;3.53;;;;;;;-141.23;100.00;62281.09;5080490;28;20069;-71
2022/10/08 00:34:57;;;;;;;17.48;4.20;;;;;;;-141.23;100.00;62281.09;5081160;28;20046;-71
2022/10/08 00:37:25;;;;;;;13.00;4.40;;;;;;;-141.23;100.00;62281.09;5079029;28;20130;-70
2022/10/08 00:39:51;;;;;;;16.58;4.03;;;;;;;-141.23;100.00;62281.09;5093399;28;20126;-72
2022/10/08 00:42:17;;;;;;;15.68;4.60;;;;;;;-141.23;100.00;62281.09;5062035;28;20127;-70
2022/10/08 00:44:46;;;;;;;15.13;5.68;;;;;;;-141.23;100.00;62281.09;5044857;28;20044;-71
2022/10/08 00:47:15;;;;;;;19.23;4.93;;;;;;;-141.23;100.00;62281.09;5061772;28;20054;-71
2022/10/08 00:49:42;;;;;;;12.13;4.30;;;;;;;-141.23;100.00;62281.09;5095464;28;20043;-70
2022/10/08 00:52:08;;;;;;;16.05;4.03;;;;;;;-141.23;100.00;62281.09;5095750;28;20054;-71
2022/10/08 00:54:35;;;;;;;16.23;3.97;;;;;;;-141.23;100.00;62281.09;5078840;28;20035;-70
2022/10/08 00:57:00;;;;;;;14.60;4.63;;;;;;;-141.23;100.00;62281.09;5095695;28;20092;-70
2022/10/08 00:59:27;;;;;;;16.40;3.47;;;;;;;-141.23;100.00;62281.09;5062212;28;20043;-70
2022/10/08 01:01:55;;;;;;;15.25;4.50;;;;;;;-141.23;100.00;62281.09;5095621;28;20150;-71
2022/10/08 01:04:21;;;;;;;19.38;4.05;;;;;;;-141.23;100.00;62281.09;5079626;28;20359;-70
2022/10/08 01:07:04;;;;;;;11.82;3.60;;;;;;;-141.23;100.00;62281.09;5062176;28;20519;-70
2022/10/08 01:09:47;;;;;;;16.13;3.45;;;;;;;-141.23;100.00;62281.09;5078512;28;20378;-71
2022/10/08 01:12:44;;;;;;;19.38;3.65;;;;;;;-141.23;100.00;62281.09;5077816;28;20054;-71
2022/10/08 01:15:12;;;;;;;9.43;3.13;;;;;;;-141.23;100.00;62281.09;5095557;28;20040;-71
2022/10/08 01:17:49;;;;;;;24.10;3.53;;;;;;;-141.23;100.00;62281.09;5078182;28;20054;-70
2022/10/08 01:20:28;;;;;;;12.48;3.10;;;;;;;-141.23;100.00;62281.09;5061806;28;20036;-70
2022/10/08 01:23:12;;;;;;;15.38;3.13;;;;;;;-141.23;100.00;62281.09;5078452;28;20144;-70
2022/10/08 01:25:47;;;;;;;13.43;3.28;;;;;;;-141.23;100.00;62281.09;5061469;28;20040;-70
2022/10/08 01:28:26;;;;;;;10.65;3.08;;;;;;;-141.23;100.00;62281.09;5094579;28;20216;-70
2022/10/08 01:31:01;;;;;;;13.52;3.35;;;;;;;-141.23;100.00;62281.09;5061406;28;20047;-71
2022/10/08 01:33:52;;;;;;;12.27;3.10;;;;;;;-141.23;100.00;62281.09;5077911;28;20044;-70
2022/10/08 01:36:20;;;;;;;11.75;2.88;;;;;;;-141.23;100.00;62281.09;5062533;28;20044;-70
2022/10/08 01:39:00;;;;;;;11.68;3.20;;;;;;;-141.23;100.00;62281.09;5060021;28;20052;-69
2022/10/08 01:41:28;;;;;;;9.88;3.40;;;;;;;-141.23;100.00;62281.09;5090118;28;20036;-69
2022/10/08 01:44:12;;;;;;;11.93;3.10;;;;;;;-141.23;100.00;62281.09;5094971;28;20135;-72
2022/10/08 01:46:40;;;;;;;10.57;3.00;;;;;;;-141.23;100.00;62281.09;5061009;28;20044;-70
2022/10/08 01:49:10;;;;;;;14.57;3.22;;;;;;;-141.23;100.00;62281.09;5095006;28;20058;-70
2022/10/08 01:52:03;;;;;;;15.80;3.40;;;;;;;-141.23;100.00;62281.09;5061817;28;20429;-70
2022/10/08 01:54:30;;;;;;;9.27;3.15;;;;;;;-141.23;100.00;62281.09;5061201;28;20094;-70
2022/10/08 01:56:57;;;;;;;8.85;2.88;;;;;;;-141.23;100.00;62281.09;5077846;28;20485;-71
2022/10/08 01:59:26;;;;;;;13.75;3.17;;;;;;;-141.23;100.00;62281.09;5044885;28;20393;-71
2022/10/08 02:02:08;;;;;;;14.25;3.15;;;;;;;-141.23;100.00;62281.09;5078210;28;20065;-69
2022/10/08 02:04:35;;;;;;;;;;;;;;;-141.23;100.00;62281.09;5095090;28;20101;-70
2022/10/08 02:07:08;;;;;;;11.32;2.90;;;;;;;-141.23;100.00;62281.09;5078189;28;19920;-69
2022/10/08 02:09:42;;;;;;;10.80;2.85;;;;;;;-141.23;100.00;62281.09;5061603;28;20474;-70
2022/10/08 02:12:09;;;;;;;9.25;2.80;;;;;;;-141.23;100.00;62281.09;5078520;28;20430;-71
2022/10/08 02:14:38;;;;;;;12.30;3.05;;;;;;;-141.23;100.00;62281.09;5078529;28;20048;-70
2022/10/08 02:17:12;;;;;;;11.85;3.20;;;;;;;-141.23;100.00;62281.09;5061416;28;20135;-70
2022/10/08 02:19:46;;;;;;;15.25;3.15;;;;;;;-141.23;100.00;62281.09;5062557;28;20097;-70
2022/10/08 02:22:15;;;;;;;13.63;2.72;;;;;;;-141.23;100.00;62281.09;5077634;28;20059;-70
2022/10/08 02:24:52;;;;;;;11.52;3.00;;;;;;;-141.23;100.00;62281.09;5078843;28;20365;-70
2022/10/08 02:27:25;;;;;;;11.90;3.50;;;;;;;-141.23;100.00;62281.09;5099146;28;20141;-70
2022/10/08 02:30:11;;;;;;;12.30;3.13;;;;;;;-141.23;100.00;62281.09;5065151;28;20043;-70
2022/10/08 02:32:44;;;;;;;12.20;3.88;;;;;;;-141.23;100.00;62281.09;5081590;28;20059;-70
2022/10/08 02:35:13;;;;;;;14.70;2.83;;;;;;;-141.23;100.00;62281.09;5081663;28;20046;-70
2022/10/08 02:37:44;;;;;;;10.30;3.03;;;;;;;-141.23;100.00;62281.09;5098126;28;20092;-69
2022/10/08 02:40:11;;;;;;;13.55;3.88;;;;;;;-141.23;100.00;62281.09;5081228;28;20051;-69
2022/10/08 02:42:52;;;;;;;9.43;2.65;;;;;;;-141.23;100.00;62281.09;5064472;28;20044;-69
2022/10/08 02:45:25;;;;;;;11.80;2.80;;;;;;;-141.23;100.00;62281.09;5064728;28;21105;-68
2022/10/08 02:47:58;;;;;;;8.35;2.50;;;;;;;-141.23;100.00;62281.09;5098181;28;20051;-69
2022/10/08 02:50:25;;;;;;;13.82;2.83;;;;;;;-141.23;100.00;62281.09;5098348;28;20039;-68
2022/10/08 02:52:51;;;;;;;11.43;2.78;;;;;;;-141.23;100.00;62281.09;5081023;28;20043;-69
2022/10/08 02:55:38;;;;;;;7.43;3.00;;;;;;;-141.23;100.00;62281.09;5064835;28;20032;-69
2022/10/08 02:58:08;;;;;;;8.30;2.85;;;;;;;-141.23;100.00;62281.09;5085663;28;20051;-69
2022/10/08 03:00:38;;;;;;;11.70;2.70;;;;;;;-141.23;100.00;62281.09;5103573;28;20054;-69
2022/10/08 03:03:09;;;;;;;10.13;2.90;;;;;;;-141.23;100.00;62281.09;5102483;28;20059;-69
2022/10/08 03:05:36;;;;;;;17.30;3.00;;;;;;;-141.23;100.00;62281.09;5105203;28;20152;-70
2022/10/08 03:08:04;;;;;;;8.10;2.88;;;;;;;-141.23;100.00;62281.09;5067253;28;20046;-70
2022/10/08 03:10:33;;;;;;;11.60;2.90;;;;;;;-141.23;100.00;62281.09;5098490;28;20126;-69
2022/10/08 03:13:00;;;;;;;10.18;2.67;;;;;;;-141.23;100.00;62281.09;5097759;28;20469;-72
2022/10/08 03:15:26;;;;;;;9.20;2.90;;;;;;;-141.23;100.00;62281.09;5080750;28;20040;-69
2022/10/08 03:17:52;;;;;;;11.70;2.63;;;;;;;-141.23;100.00;62281.09;5080377;28;20053;-68
2022/10/08 03:20:18;;;;;;;12.32;2.80;;;;;;;-141.23;100.00;62281.09;5080277;28;20371;-69
2022/10/08 03:22:44;;;;;;;10.27;3.03;;;;;;;-141.23;100.00;62281.09;5063293;28;20039;-68
2022/10/08 03:25:09;;;;;;;11.25;3.72;;;;;;;-141.23;100.00;62281.09;5079846;28;20442;-69
2022/10/08 03:27:36;;;;;;;10.13;2.90;;;;;;;-141.23;100.00;62281.09;5081062;28;20040;-68
2022/10/08 03:30:03;;;;;;;8.88;2.78;;;;;;;-141.23;100.00;62281.09;5048237;28;20389;-71
2022/10/08 03:32:30;;;;;;;10.65;2.65;;;;;;;-141.23;100.00;62281.09;5081589;28;20044;-71
2022/10/08 03:34:56;;;;;;;14.40;3.15;;;;;;;-141.23;100.00;62281.09;5081588;28;20488;-69
2022/10/08 03:37:22;;;;;;;12.75;3.08;;;;;;;-141.23;100.00;62281.09;5081591;28;20361;-70
2022/10/08 03:39:47;;;;;;;8.23;2.85;;;;;;;-141.23;100.00;62281.09;5048078;28;20089;-70
2022/10/08 03:42:13;;;;;;;11.85;3.03;;;;;;;-141.23;100.00;62281.09;5097222;28;20100;-70
2022/10/08 03:44:39;;;;;;;10.70;2.50;;;;;;;-141.23;100.00;62281.09;5063322;28;20038;-71
2022/10/08 03:47:04;;;;;;;10.82;2.90;;;;;;;-141.23;100.00;62281.09;5063126;28;20035;-70
2022/10/08 03:49:30;;;;;;;11.20;2.95;;;;;;;-141.23;100.00;62281.09;5063944;28;20055;-70
2022/10/08 03:51:56;;;;;;;9.90;2.50;;;;;;;-141.23;100.00;62281.09;5046410;28;20036;-71
2022/10/08 03:54:22;;;;;;;13.73;3.05;;;;;;;-141.23;100.00;62281.09;5046822;28;20035;-69
2022/10/08 03:56:47;;;;;;;13.15;2.45;;;;;;;-141.23;100.00;62281.09;5062903;28;20458;-70
2022/10/08 03:59:13;;;;;;;12.32;3.15;;;;;;;-141.23;100.00;62281.09;5062771;28;20047;-74
2022/10/08 04:01:39;;;;;;;10.07;2.78;;;;;;;-141.23;100.00;62281.09;5063854;28;20457;-75
2022/10/08 04:04:05;;;;;;;9.68;2.72;;;;;;;-141.23;100.00;62281.09;5063185;28;20036;-75
2022/10/08 04:06:30;;;;;;;12.70;2.90;;;;;;;-141.23;100.00;62281.09;5080568;28;20063;-75
2022/10/08 04:08:59;;;;;;;9.43;3.10;;;;;;;-141.23;100.00;62281.09;5079545;28;20043;-74
2022/10/08 04:11:28;;;;;;;9.05;2.95;;;;;;;-141.23;100.00;62281.09;5096693;28;20036;-73
2022/10/08 04:13:54;;;;;;;15.75;3.67;;;;;;;-141.23;100.00;62281.09;5079210;28;20048;-73
2022/10/08 04:16:21;;;;;;;8.38;2.90;;;;;;;-141.23;100.00;62281.09;5079214;28;20139;-73
2022/10/08 04:18:47;;;;;;;9.32;2.70;;;;;;;-141.23;100.00;62281.09;5079083;28;20092;-76
2022/10/08 04:21:15;;;;;;;6.72;2.08;;;;;;;-141.23;100.00;62281.09;5079129;28;20523;-75
2022/10/08 04:23:42;;;;;;;11.13;2.63;;;;;;;-141.23;100.00;62281.09;5078404;28;20051;-75
2022/10/08 04:26:09;;;;;;;10.77;3.05;;;;;;;-141.23;100.00;62281.09;5041681;28;20068;-75
2022/10/08 04:28:40;;;;;;;9.07;2.67;;;;;;;-141.23;100.00;62281.09;5042224;28;20062;-75
2022/10/08 04:31:09;;;;;;;11.68;3.10;;;;;;;-141.23;100.00;62281.09;5075491;28;20050;-74
2022/10/08 04:33:35;;;;;;;10.77;2.70;;;;;;;-141.23;100.00;62281.09;5058612;28;20051;-75
2022/10/08 04:36:06;;;;;;;18.80;3.25;;;;;;;-141.23;100.00;62281.09;5075650;28;20048;-74
2022/10/08 04:38:32;;;;;;;12.63;2.80;;;;;;;-141.23;100.00;62281.09;5076391;28;20052;-74
2022/10/08 04:41:09;;;;;;;11.50;2.70;;;;;;;-141.23;100.00;62281.09;5042385;28;20055;-73
2022/10/08 04:43:36;;;;;;;10.52;3.00;;;;;;;-141.23;100.00;62281.09;5059138;28;20066;-75
2022/10/08 04:46:02;;;;;;;7.45;2.67;;;;;;;-141.23;100.00;62281.09;5064549;28;20186;-75
2022/10/08 04:48:28;;;;;;;7.05;2.92;;;;;;;-141.23;100.00;62281.09;5059677;28;20074;-74
2022/10/08 04:50:57;;;;;;;11.90;3.08;;;;;;;-141.23;100.00;62281.09;5057877;28;20032;-76
2022/10/08 04:53:26;;;;;;;14.93;3.05;;;;;;;-141.23;100.00;62281.09;5091049;28;20123;-75
2022/10/08 04:55:53;;;;;;;8.68;3.65;;;;;;;-141.23;100.00;62281.09;5057740;28;20040;-75
2022/10/08 04:58:19;;;;;;;11.02;2.88;;;;;;;-141.23;100.00;62281.09;5074304;28;20340;-73
2022/10/08 05:00:45;;;;;;;15.00;2.97;;;;;;;-141.23;100.00;62281.09;5058990;28;20183;-74
2022/10/08 05:03:10;;;;;;;16.95;3.08;;;;;;;-141.23;100.00;62281.09;5045237;28;20126;-75
2022/10/08 05:05:46;;;;;;;14.88;3.45;;;;;;;-141.23;100.00;62281.09;5060552;28;20040;-76
2022/10/08 05:08:12;;;;;;;9.80;3.13;;;;;;;-141.23;100.00;62281.09;5093956;28;20122;-76
2022/10/08 05:10:37;;;;;;;8.75;3.47;;;;;;;-141.23;100.00;62281.09;5061833;28;20043;-76
2022/10/08 05:13:03;;;;;;;11.02;3.25;;;;;;;-141.23;100.00;62281.09;5047746;28;20462;-79
2022/10/08 05:15:29;;;;;;;17.92;3.85;;;;;;;-141.23;100.00;62281.09;5046932;28;20366;-75
2022/10/08 05:17:55;;;;;;;15.43;3.47;;;;;;;-141.23;100.00;62281.09;5077218;28;20047;-78
2022/10/08 05:20:22;;;;;;;11.60;3.28;;;;;;;-141.23;100.00;62281.09;5044200;28;20039;-84
2022/10/08 05:22:48;;;;;;;16.08;3.30;;;;;;;-141.23;100.00;62281.09;5044838;28;20099;-79
2022/10/08 05:25:16;;;;;;;10.50;3.38;;;;;;;-141.23;100.00;62281.09;5060847;28;20475;-78
2022/10/08 05:27:41;;;;;;;10.75;3.15;;;;;;;-141.23;100.00;62281.09;5044142;28;20394;-78
2022/10/08 05:30:08;;;;;;;15.02;3.67;;;;;;;-141.23;100.00;62281.09;5060974;28;20044;-76
2022/10/08 05:32:34;;;;;;;13.30;3.30;;;;;;;-141.23;100.00;62281.09;5062437;28;20134;-74
2022/10/08 05:35:02;;;;;;;12.73;2.95;;;;;;;-141.23;100.00;62281.09;5070143;28;20074;-78
2022/10/08 05:37:30;;;;;;;18.70;4.10;;;;;;;-141.23;100.00;62281.09;5085615;28;20370;-78
2022/10/08 05:39:56;;;;;;;17.92;3.30;;;;;;;-141.23;100.00;62281.09;5060224;28;20036;-80
2022/10/08 05:42:22;;;;;;;10.77;3.42;;;;;;;-141.23;100.00;62281.09;5058572;28;20113;-78
2022/10/08 05:44:47;;;;;;;14.68;4.20;;;;;;;-141.23;100.00;62281.09;5042748;28;20105;-78
2022/10/08 05:47:13;;;;;;;16.88;3.88;;;;;;;-141.23;100.00;62281.09;5042110;28;20050;-78
2022/10/08 05:49:40;;;;;;;11.55;3.80;;;;;;;-141.23;100.00;62281.09;5042092;28;20036;-78
2022/10/08 05:52:05;;;;;;;18.83;5.93;;;;;;;-141.23;100.00;62281.09;5058196;28;20043;-77
2022/10/08 05:54:31;;;;;;;16.13;4.72;;;;;;;-141.23;100.00;62281.09;5057126;28;20441;-79
2022/10/08 05:56:57;;;;;;;19.63;5.05;;;;;;;-141.23;100.00;62281.09;5074600;28;20036;-79
2022/10/08 05:59:27;;;;;;;12.35;4.05;;;;;;;-141.23;100.00;62281.09;5058392;28;20051;-77
2022/10/08 06:02:01;;;;;;;14.52;4.30;;;;;;;-141.23;100.00;62281.09;5074757;28;20051;-80
2022/10/08 06:04:33;;;;;;;18.67;4.20;;;;;;;-141.23;100.00;62281.09;5076444;28;20078;-79
2022/10/08 06:06:58;;;;;;;19.88;7.22;;;;;;;-141.23;100.00;62281.09;5044256;28;20052;-80
2022/10/08 06:09:24;;;;;;;13.73;4.63;;;;;;;-141.23;100.00;62281.09;5044321;28;20133;-79
2022/10/08 06:11:50;;;;;;;20.45;3.85;;;;;;;-141.23;100.00;62281.09;5033640;28;20477;-77
2022/10/08 06:14:19;;;;;;;15.77;3.50;;;;;;;-141.23;100.00;62281.09;5061265;28;20047;-78
2022/10/08 06:16:45;;;;;;;17.52;5.05;;;;;;;-141.23;100.00;62281.09;5094299;28;20124;-79
2022/10/08 06:19:11;;;;;;;13.73;2.80;;;;;;;-141.23;100.00;62281.09;5078321;28;20385;-80
2022/10/08 06:21:37;;;;;;;11.85;3.25;;;;;;;-141.23;100.00;62281.09;5063015;28;20141;-76
2022/10/08 06:24:06;;;;;;;12.02;2.75;;;;;;;-141.23;100.00;62281.09;5063277;28;20075;-81
2022/10/08 06:26:37;;;;;;;12.50;2.40;;;;;;;-141.23;100.00;62281.09;5063893;28;20043;-81
2022/10/08 06:29:10;;;;;;;10.75;2.38;;;;;;;-141.23;100.00;62281.09;5065032;28;20050;-80
2022/10/08 06:31:37;;;;;;;19.23;2.80;;;;;;;-141.23;100.00;62281.09;5046468;28;20044;-81
2022/10/08 06:34:03;;;;;;;14.60;2.90;;;;;;;-141.23;100.00;62281.09;5061309;28;20076;-81
2022/10/08 06:36:31;;;;;;;12.93;2.30;;;;;;;-141.23;100.00;62281.09;5044925;28;20062;-81
2022/10/08 06:38:59;;;;;;;16.95;4.40;;;;;;;-141.23;100.00;62281.09;5096349;28;20105;-81
2022/10/08 06:41:25;;;;;;;10.90;2.38;;;;;;;-141.23;100.00;62281.09;5062569;28;20049;-82
2022/10/08 06:43:52;;;;;;;11.23;2.78;;;;;;;-141.23;100.00;62281.09;5061979;28;20036;-84
2022/10/08 06:46:18;;;;;;;9.88;2.83;;;;;;;-141.23;100.00;62281.09;5078691;28;20044;-81
2022/10/08 06:48:44;;;;;;;16.42;3.08;;;;;;;-141.23;100.00;62281.09;5062325;28;20035;-79
2022/10/08 06:51:13;;;;;;;9.82;2.10;;;;;;;-141.23;100.00;62281.09;5062390;28;20039;-79
2022/10/08 06:53:40;;;;;;;10.15;2.60;;;;;;;-141.23;100.00;62281.09;5078055;28;20043;-78
2022/10/08 06:56:09;;;;;;;12.63;2.67;;;;;;;-141.23;100.00;62281.09;5078211;28;20138;-78
2022/10/08 06:58:36;;;;;;;16.33;2.75;;;;;;;-141.23;100.00;62281.09;5076695;28;20051;-77
2022/10/08 07:01:02;;;;;;;8.60;2.17;;;;;;;-141.23;100.00;62281.09;5060747;28;20039;-79
2022/10/08 07:03:28;;;;;;;10.95;2.65;;;;;;;-141.23;100.00;62281.09;5060612;28;20044;-78
2022/10/08 07:05:54;;;;;;;11.43;2.13;;;;;;;-141.23;100.00;62281.09;5061013;28;20176;-78
2022/10/08 07:08:20;;;;;;;8.02;2.85;;;;;;;-141.23;100.00;62281.09;5060357;28;20075;-79
2022/10/08 07:10:49;;;;;;;5.95;2.00;;;;;;;-141.23;100.00;62281.09;5062265;28;20040;-80
2022/10/08 07:13:15;;;;;;;8.38;1.83;;;;;;;-141.23;100.00;62281.09;5065378;28;20054;-81
2022/10/08 07:15:41;;;;;;;10.25;2.25;;;;;;;-141.23;100.00;62281.09;5048262;28;20035;-79
2022/10/08 07:18:10;;;;;;;12.35;2.50;;;;;;;-141.23;100.00;62281.09;5064791;28;20416;-78
2022/10/08 07:20:36;;;;;;;7.68;2.30;;;;;;;-141.23;100.00;62281.09;5081192;28;20028;-80
2022/10/08 07:23:02;;;;;;;8.95;2.50;;;;;;;-141.23;100.00;62281.09;5064206;28;20075;-80
2022/10/08 07:25:28;;;;;;;8.90;2.33;;;;;;;-141.23;100.00;62281.09;5081604;28;20073;-79
2022/10/08 07:27:54;;;;;;;7.82;2.28;;;;;;;-141.23;100.00;62281.09;5064233;28;20469;-78
2022/10/08 07:30:23;;;;;;;13.82;2.47;;;;;;;-141.23;100.00;62281.09;5064921;28;20100;-79
2022/10/08 07:32:52;;;;;;;10.10;2.22;;;;;;;-141.23;100.00;62281.09;5047743;28;20047;-82
2022/10/08 07:35:18;;;;;;;9.88;2.08;;;;;;;-141.23;100.00;62281.09;5064148;28;20046;-82
2022/10/08 07:37:44;;;;;;;9.70;2.40;;;;;;;-141.23;100.00;62281.09;5081268;28;20031;-80
2022/10/08 07:40:12;;;;;;;10.48;2.20;;;;;;;-141.23;100.00;62281.09;5048086;28;20523;-78
2022/10/08 07:42:40;;;;;;;10.43;2.88;;;;;;;-141.23;100.00;62281.09;5098459;28;20455;-80
2022/10/08 07:45:08;;;;;;;10.13;2.40;;;;;;;-141.23;100.00;62281.09;5081392;28;20078;-80
2022/10/08 07:47:34;;;;;;;7.75;2.30;;;;;;;-141.23;100.00;62281.09;5047374;28;20065;-82
2022/10/08 07:50:00;;;;;;;9.25;2.20;;;;;;;-141.23;100.00;62281.09;5031495;28;20047;-80
2022/10/08 07:52:28;;;;;;;11.00;2.63;;;;;;;-141.23;100.00;62281.09;5080995;28;20047;-80
2022/10/08 07:54:54;;;;;;;8.20;2.33;;;;;;;-141.23;100.00;62281.09;5115113;28;20047;-80
2022/10/08 07:57:19;;;;;;;8.05;2.60;;;;;;;-141.23;100.00;62281.09;5080093;28;20058;-80
2022/10/08 07:59:45;;;;;;;6.30;2.15;;;;;;;-141.23;100.00;62281.09;5063326;28;21066;-81
2022/10/08 08:02:33;;;;;;;8.95;2.15;;;;;;;-141.23;100.00;62281.09;5087532;28;20047;-81
2022/10/08 08:04:59;;;;;;;9.10;2.13;;;;;;;-141.23;100.00;62281.09;5063928;28;20043;-82
2022/10/08 08:07:25;;;;;;;10.75;2.35;;;;;;;-141.23;100.00;62281.09;5047176;28;20043;-83
2022/10/08 08:09:53;;;;;;;10.88;2.15;;;;;;;-141.23;100.00;62281.09;5078567;28;20148;-80
2022/10/08 08:12:19;;;;;;;9.95;1.98;;;;;;;-141.23;100.00;62281.09;5048996;28;20039;-79
2022/10/08 08:14:48;;;;;;;6.63;2.10;;;;;;;-141.23;100.00;62281.09;5064534;28;20454;-80
2022/10/08 08:17:14;;;;;;;9.93;2.10;;;;;;;-141.23;100.00;62281.09;5096397;28;20117;-82
2022/10/08 08:19:43;;;;;;;6.95;2.40;;;;;;;-141.23;100.00;62281.09;5063241;28;20057;-79
2022/10/08 08:22:09;;;;;;;7.07;1.98;;;;;;;-141.23;100.00;62281.09;5061980;28;20145;-74
2022/10/08 08:24:36;;;;;;;12.30;2.55;;;;;;;-141.23;100.00;62281.09;5062931;28;20369;-78
2022/10/08 08:27:02;;;;;;;7.22;1.63;;;;;;;-141.23;100.00;62281.09;5047679;28;20063;-81
2022/10/08 08:29:27;;;;;;;6.38;1.92;;;;;;;-141.23;100.00;62281.09;5047276;28;20140;-82
2022/10/08 08:31:53;;;;;;;10.68;2.35;;;;;;;-141.23;100.00;62281.09;5079798;28;20051;-79
2022/10/08 08:34:22;;;;;;;12.55;2.25;;;;;;;-141.23;100.00;62281.09;5047382;28;20048;-80
2022/10/08 08:36:49;;;;;;;7.80;2.10;;;;;;;-141.23;100.00;62281.09;5080742;28;20078;-80
2022/10/08 08:39:18;;;;;;;5.78;2.05;;;;;;;-141.23;100.00;62281.09;5098970;28;20039;-78
2022/10/08 08:42:05;;;;;;;6.15;1.90;;;;;;;-141.23;100.00;62281.09;5080000;28;20043;-74
2022/10/08 08:44:42;;;;;;;7.90;2.60;;;;;;;-141.23;100.00;62281.09;5062954;28;20047;-82
2022/10/08 08:47:24;;;;;;;8.45;2.33;;;;;;;-141.23;100.00;62281.09;5046436;28;20047;-78
2022/10/08 08:49:55;;;;;;;9.10;2.90;;;;;;;-141.23;100.00;62281.09;5062294;28;20071;-78
2022/10/08 08:52:27;;;;;;;9.68;2.70;;;;;;;-141.23;100.00;62281.09;5062962;28;20051;-81
2022/10/08 08:54:53;;;;;;;7.38;2.60;;;;;;;-141.23;100.00;62281.09;5078896;28;20043;-78
2022/10/08 08:57:37;;;;;;;5.63;1.83;;;;;;;-141.23;100.00;62281.09;5094626;28;20046;-77
2022/10/08 09:00:26;;;;;;;10.95;2.70;;;;;;;-141.23;100.00;62281.09;5094999;28;20048;-82
2022/10/08 09:02:56;;;;;;;9.55;1.90;;;;;;;-141.23;100.00;62281.09;5047766;28;20142;-83
2022/10/08 09:05:23;;;;;;;6.13;2.03;;;;;;;-141.23;100.00;62281.09;5098346;28;20128;-78
2022/10/08 09:08:18;;;;;;;8.85;2.53;;;;;;;-141.23;100.00;62281.09;5080273;28;20036;-83
2022/10/08 09:11:01;;;;;;;8.90;2.22;;;;;;;-141.23;100.00;62281.09;5093223;28;20468;-74
2022/10/08 09:13:49;;;;;;;5.72;1.90;;;;;;;-141.23;100.00;62281.09;5092578;28;20114;-82
2022/10/08 09:16:16;;;;;;;7.13;1.90;;;;;;;-141.23;100.00;62281.09;5066657;28;20126;-79
2022/10/08 09:18:45;;;;;;;4.68;1.60;;;;;;;-141.23;100.00;62281.09;5061082;28;20054;-78
2022/10/08 09:21:22;;;;;;;6.63;2.00;;;;;;;-141.23;100.00;62281.09;5095840;28;20126;-83
2022/10/08 09:23:48;;;;;;;12.88;1.73;;;;;;;-141.23;100.00;62281.09;5077663;28;20481;-80
2022/10/08 09:26:20;;;;;;;7.70;2.05;;;;;;;-141.23;100.00;62281.09;5027675;28;20529;-83
2022/10/08 09:28:54;;;;;;;6.75;1.80;;;;;;;-141.23;100.00;62281.09;5074405;28;20450;-76
2022/10/08 09:31:32;;;;;;;6.85;1.80;;;;;;;-141.23;100.00;62281.09;5075443;28;20048;-76
2022/10/08 09:34:17;;;;;;;7.65;2.35;;;;;;;-141.23;100.00;62281.09;5074708;28;20071;-75
2022/10/08 09:36:48;;;;;;;6.93;1.98;;;;;;;-141.23;100.00;62281.09;5075500;28;20055;-79
2022/10/08 09:39:22;;;;;;;8.65;2.22;;;;;;;-141.23;100.00;62281.09;5058356;28;20124;-76
2022/10/08 09:42:06;;;;;;;11.50;1.90;;;;;;;-141.23;100.00;62281.09;5092135;28;20069;-79
2022/10/08 09:44:44;;;;;;;9.90;1.95;;;;;;;-141.23;100.00;62281.09;5075722;28;20152;-80
2022/10/08 09:47:12;;;;;;;5.50;1.90;;;;;;;-141.23;100.00;62281.09;5077330;28;20040;-81
2022/10/08 09:49:37;;;;;;;6.47;2.00;;;;;;;-141.23;100.00;62281.09;5094823;28;20054;-78
2022/10/08 09:52:27;;;;;;;8.95;2.20;;;;;;;-141.23;100.00;62281.09;5060323;28;20457;-78
2022/10/08 09:55:14;;;;;;;8.68;2.28;;;;;;;-141.23;100.00;62281.09;5047650;28;20058;-81
2022/10/08 09:57:43;;;;;;;8.25;2.13;;;;;;;-141.23;100.00;62281.09;5074065;28;20048;-76
2022/10/08 10:00:25;;;;;;;6.95;2.95;;;;;;;-141.23;100.00;62281.09;5077364;28;20474;-79
2022/10/08 10:02:54;;;;;;;8.82;2.17;;;;;;;-141.23;100.00;62281.09;5075993;28;20059;-75
2022/10/08 10:05:26;;;;;;;3.08;1.52;;;;;;;-141.23;100.00;62281.09;5043580;28;20058;-78
2022/10/08 10:07:53;;;;;;;7.85;1.95;;;;;;;-141.23;100.00;62281.09;5060927;28;20093;-77
2022/10/08 10:10:24;;;;;;;5.68;2.20;;;;;;;-141.23;100.00;62281.09;5060452;28;20031;-78
2022/10/08 10:12:56;;;;;;;5.30;1.75;;;;;;;-141.23;100.00;62281.09;5059519;28;20043;-79
2022/10/08 10:15:26;;;;;;;8.55;2.25;;;;;;;-141.23;100.00;62281.09;5095579;28;20036;-75
2022/10/08 10:17:57;;;;;;;5.57;1.90;;;;;;;-141.23;100.00;62281.09;5093207;28;20415;-76
2022/10/08 10:20:29;;;;;;;8.13;2.30;;;;;;;-141.23;100.00;62281.09;5091897;28;20104;-78
2022/10/08 10:23:00;;;;;;;8.70;1.90;;;;;;;-141.23;100.00;62281.09;5043466;28;20385;-80
2022/10/08 10:25:25;;;;;;;;;;;;;;;-141.23;100.00;62281.09;5094924;28;20039;-79
2022/10/08 10:27:54;;;;;;;8.88;2.58;;;;;;;-141.23;100.00;62281.09;5066999;28;20475;-79
2022/10/08 10:30:22;;;;;;;8.65;2.70;;;;;;;-141.23;100.00;62281.09;5069734;28;20040;-81
2022/10/08 10:32:57;;;;;;;6.82;2.40;;;;;;;-141.23;100.00;62281.09;5069514;28;20047;-80
2022/10/08 10:35:28;;;;;;;6.20;2.10;;;;;;;-141.23;100.00;62281.09;5084542;28;20050;-80
2022/10/08 10:38:24;;;;;;;9.75;2.05;;;;;;;-141.23;100.00;62281.09;5098251;28;20047;-79
2022/10/08 10:41:03;;;;;;;7.82;2.10;;;;;;;-141.23;100.00;62281.09;5075456;28;20095;-79
2022/10/08 10:43:33;;;;;;;8.53;2.20;;;;;;;-141.23;100.00;62281.09;5069722;28;20048;-79
2022/10/08 10:46:14;;;;;;;10.13;2.63;;;;;;;-141.23;100.00;62281.09;5089194;28;20101;-79
2022/10/08 10:48:40;;;;;;;7.35;2.25;;;;;;;-141.23;100.00;62281.09;5070363;28;20495;-82
2022/10/08 10:51:13;;;;;;;9.10;2.53;;;;;;;-141.23;100.00;62281.09;5066038;28;20062;-83
2022/10/08 10:53:48;;;;;;;7.28;2.03;;;;;;;-141.23;100.00;62281.09;5100031;28;20044;-78
2022/10/08 10:56:17;;;;;;;14.50;3.95;;;;;;;-141.23;100.00;62281.09;5103109;28;20047;-83
2022/10/08 10:59:02;;;;;;;6.57;2.40;;;;;;;-141.23;100.00;62281.09;5048490;28;20101;-77
2022/10/08 11:01:33;;;;;;;9.07;1.95;;;;;;;-141.23;100.00;62281.09;5081186;28;20469;-78
2022/10/08 11:04:11;;;;;;;8.50;2.40;;;;;;;-141.23;100.00;62281.09;5095046;28;20623;-77
2022/10/08 11:06:37;;;;;;;11.50;2.30;;;;;;;-141.23;100.00;62281.09;5060099;28;20292;-77
2022/10/08 11:09:40;;;;;;;9.13;2.30;;;;;;;-141.23;100.00;62281.09;5062487;28;20442;-78
2022/10/08 11:12:31;;;;;;;9.82;2.50;;;;;;;-141.23;100.00;62281.09;5057616;28;20186;-80
2022/10/08 11:15:17;;;;;;;8.50;2.60;;;;;;;-141.23;100.00;62281.09;5095229;28;20118;-78
2022/10/08 11:18:12;;;;;;;5.30;2.15;;;;;;;-141.23;100.00;62281.09;5057127;28;20043;-80